Twelve Mile, IN (46988)

8:49 AM EDT on April 27, 2015 (GMT -0400)
Windsor Forest | | Change Station
CLOSE
Current Station
Personal Weather Station
Location: Logansport, IN
Elevation: 669 ft
Nearby Weather Stations

Elev 669 ft 40.76 °N, 86.30 °W | Updated 1 second ago

Clear
Clear
42.3 °F
Feels Like 39 °F
N
4.6
Wind Variable Wind from NNW
Gusts 4.6 mph

Today
High -- | Low -- °F
--% Chance of Precip.
Yesterday
High -- | Low -- °F
Precip. -- in
6:48 AM 8:36 PM
Waxing Gibbous, 64% visible
Pressure 30.04 in
Visibility 10.0 miles
Clouds Clear
Windchill 39 °F
Dew Point 40 °F
Humidity 92%
Rainfall 0.00 in
Snow Depth Not available.
UV 1 out of 12
Pollen 10.60 out of 12
Air Quality Not available.
Flu Activity Local Activity
METAR KGGP 271235Z AUTO 33006KT 10SM CLR 05/00 A3004 RMK AO2

More Conditions Fewer Conditions

Pressure 30.04 in
Visibility 10.0 miles
Clouds Clear
Windchill 39 °F
Dew Point 40 °F
Humidity 92%
Rainfall 0.00 in
Snow Depth Not available.
UV 1 out of 12
Pollen 10.60 out of 12
Air Quality Not available.
Flu Activity Local Activity
METAR KGGP 271235Z AUTO 33006KT 10SM CLR 05/00 A3004 RMK AO2

More Conditions Fewer Conditions

10-Day Weather Forecast

Almanac

Astronomy

Apr. 27, 2015 Rise Set
Actual Time
Civil Twilight
Nautical Twilight
Astronomical Twilight
Moon
Length of Visible Light
Length of Day
Tomorrow will be .
, % of the Moon is Illuminated

Today's Extremes

State Highs State Lows

Community

WunderPhotos

Upload Photos

1,817,292 photos uploaded!

WunderBlogs® & News

Nearby

Air Quality

  Air Quality AQ Index Pollutant
Not available.

Snow Depth

Station Depth Elevation

Earthquake Activity

City Distance Mag. Time & Date
Minimum magnitude displayed is 2.5.

Coastal Water Temperatures

Place Temperature

Stations

Nearby Weather Stations

Station Location Temp. Windchill Dew Point Humidity Wind Precip. Elev Updated Type